Time;durP1;ratioP1;P1;durP2;ratioP2;P2;SDS_P1;SDS_P2;PMS_P1;PMS_P2;Temp;Humidity;BMP_temperature;BMP_pressure;BME280_temperature;BME280_humidity;BME280_pressure;Samples;Min_cycle;Max_cycle;Signal;HPM_P1;HPM_P2
2021/03/19 00:01:55;;;;;;;10.82;5.90;;;4.60;92.80;;;;;;5073185;28;20130;-75
2021/03/19 00:04:22;;;;;;;10.32;6.20;;;4.60;93.20;;;;;;5073652;28;20525;-76
2021/03/19 00:06:50;;;;;;;10.10;6.43;;;4.50;93.60;;;;;;5091531;28;20055;-77
2021/03/19 00:09:16;;;;;;;9.75;6.25;;;4.50;93.80;;;;;;5092185;28;20131;-76
2021/03/19 00:11:43;;;;;;;11.90;6.47;;;4.50;94.10;;;;;;5073390;28;20127;-75
2021/03/19 00:14:10;;;;;;;12.88;7.20;;;4.50;94.30;;;;;;5091165;28;20044;-76
2021/03/19 00:16:39;;;;;;;14.27;6.97;;;4.50;94.60;;;;;;5091796;28;20472;-76
2021/03/19 00:19:07;;;;;;;13.07;6.75;;;4.40;94.60;;;;;;5091593;28;20130;-76
2021/03/19 00:21:35;;;;;;;9.80;6.30;;;4.40;94.70;;;;;;5091489;28;20052;-76
2021/03/19 00:24:03;;;;;;;13.35;6.80;;;4.40;94.80;;;;;;5091696;28;20139;-76
2021/03/19 00:26:30;;;;;;;12.25;7.63;;;4.40;95.00;;;;;;5090926;28;20132;-76
2021/03/19 00:28:56;;;;;;;11.68;7.18;;;4.40;94.90;;;;;;5091440;28;20555;-76
2021/03/19 00:31:23;;;;;;;12.70;6.90;;;4.40;94.60;;;;;;5090930;28;20135;-76
2021/03/19 00:33:50;;;;;;;9.25;5.60;;;4.30;94.90;;;;;;5073515;28;20127;-76
2021/03/19 00:36:16;;;;;;;9.70;5.45;;;4.20;95.30;;;;;;5091361;28;20143;-76
2021/03/19 00:38:43;;;;;;;8.85;5.35;;;4.10;95.50;;;;;;5091380;28;20139;-76
2021/03/19 00:41:10;;;;;;;8.38;5.32;;;4.10;95.70;;;;;;5073389;28;20059;-76
2021/03/19 00:43:37;;;;;;;8.13;5.00;;;4.10;95.80;;;;;;5091149;28;20071;-76
2021/03/19 00:46:04;;;;;;;10.55;4.97;;;4.10;95.70;;;;;;5072990;28;20123;-77
2021/03/19 00:48:30;;;;;;;8.50;5.30;;;4.00;96.00;;;;;;5090216;28;20048;-75
2021/03/19 00:50:57;;;;;;;9.52;5.60;;;4.00;96.00;;;;;;5091182;28;20129;-75
2021/03/19 00:53:24;;;;;;;8.25;4.75;;;4.00;95.90;;;;;;5073024;28;20139;-75
2021/03/19 00:55:51;;;;;;;8.70;5.00;;;4.00;96.20;;;;;;5072591;28;20046;-76
2021/03/19 00:58:19;;;;;;;8.18;4.55;;;3.90;96.40;;;;;;5090350;28;20048;-75
2021/03/19 01:00:46;;;;;;;7.20;4.35;;;3.90;96.60;;;;;;5090164;28;20048;-76
2021/03/19 01:03:13;;;;;;;8.65;4.53;;;3.90;96.80;;;;;;5090552;28;20515;-75
2021/03/19 01:05:42;;;;;;;8.15;4.70;;;3.90;97.00;;;;;;5090939;28;20916;-75
2021/03/19 01:08:11;;;;;;;8.20;4.60;;;4.00;97.10;;;;;;5090793;28;20934;-75
2021/03/19 01:10:41;;;;;;;9.75;4.43;;;4.00;97.10;;;;;;5091187;28;20134;-76
2021/03/19 01:13:09;;;;;;;8.10;4.10;;;4.10;96.90;;;;;;5089265;28;20139;-76
2021/03/19 01:15:38;;;;;;;8.02;4.97;;;4.20;96.90;;;;;;5089796;28;20044;-77
2021/03/19 01:18:08;;;;;;;7.50;4.22;;;4.20;96.90;;;;;;5090942;28;20072;-75
2021/03/19 01:20:37;;;;;;;8.05;4.40;;;4.20;96.80;;;;;;5089344;28;20047;-76
2021/03/19 01:23:04;;;;;;;6.47;3.92;;;4.30;96.70;;;;;;5089388;28;20040;-76
2021/03/19 01:25:31;;;;;;;5.72;3.80;;;4.30;96.60;;;;;;5090153;28;20076;-76
2021/03/19 01:27:58;;;;;;;7.55;4.57;;;4.40;96.50;;;;;;5090023;28;20119;-77
2021/03/19 01:30:29;;;;;;;6.60;4.22;;;4.40;96.50;;;;;;5090193;28;20139;-76
2021/03/19 01:32:57;;;;;;;6.57;4.15;;;4.40;96.70;;;;;;5090089;28;20131;-76
2021/03/19 01:35:26;;;;;;;6.32;4.05;;;4.40;96.50;;;;;;5089974;28;20135;-76
2021/03/19 01:37:53;;;;;;;7.22;4.28;;;4.30;96.50;;;;;;5089778;28;20126;-76
2021/03/19 01:40:26;;;;;;;7.68;4.32;;;4.40;96.50;;;;;;5090575;28;20123;-75
2021/03/19 01:42:56;;;;;;;8.25;4.30;;;4.40;96.50;;;;;;5089504;28;20405;-76
2021/03/19 01:46:10;;;;;;;7.20;4.25;;;4.30;96.40;;;;;;5071882;28;20492;-76
2021/03/19 01:49:33;;;;;;;7.28;4.45;;;4.40;96.40;;;;;;5089604;28;20134;-75
2021/03/19 01:52:55;;;;;;;8.70;4.85;;;4.30;96.40;;;;;;5089798;28;20045;-76
2021/03/19 01:56:18;;;;;;;9.07;4.65;;;4.30;96.40;;;;;;5089498;28;20585;-76
2021/03/19 01:59:40;;;;;;;10.65;5.75;;;4.30;96.50;;;;;;5069462;28;20576;-76
2021/03/19 02:03:02;;;;;;;9.27;5.37;;;4.30;96.40;;;;;;5069454;28;20458;-77
2021/03/19 02:06:25;;;;;;;8.38;5.05;;;4.30;96.40;;;;;;5069266;28;20083;-75
2021/03/19 02:09:48;;;;;;;8.38;4.65;;;4.20;96.40;;;;;;5069528;28;20454;-76
2021/03/19 02:13:11;;;;;;;9.55;4.65;;;4.20;96.50;;;;;;5062082;28;20056;-76
2021/03/19 02:16:33;;;;;;;9.57;5.00;;;4.20;96.50;;;;;;5089369;28;20549;-77
2021/03/19 02:19:56;;;;;;;8.10;4.85;;;4.20;96.60;;;;;;5088783;28;20127;-75
2021/03/19 02:23:20;;;;;;;7.82;4.63;;;4.20;96.60;;;;;;5088936;28;20056;-76
2021/03/19 02:26:43;;;;;;;8.07;4.75;;;4.20;96.60;;;;;;5076702;28;20076;-77
2021/03/19 02:30:06;;;;;;;7.20;4.32;;;4.20;96.50;;;;;;5074721;28;20549;-76
2021/03/19 02:32:33;;;;;;;11.43;4.93;;;4.10;96.50;;;;;;5089316;28;20134;-76
2021/03/19 02:35:04;;;;;;;8.32;4.85;;;4.10;96.60;;;;;;5089308;28;20146;-76
2021/03/19 02:37:35;;;;;;;6.93;4.30;;;4.00;96.60;;;;;;5089294;28;20135;-75
2021/03/19 02:40:04;;;;;;;7.55;4.80;;;4.00;96.90;;;;;;5089221;28;20588;-75
2021/03/19 02:42:33;;;;;;;8.73;5.05;;;4.00;96.80;;;;;;5088834;28;20495;-75
2021/03/19 02:45:00;;;;;;;8.70;5.00;;;4.00;96.70;;;;;;5089014;28;20070;-75
2021/03/19 02:47:27;;;;;;;8.52;5.00;;;4.00;96.80;;;;;;5088511;28;20054;-75
2021/03/19 02:49:55;;;;;;;9.32;5.35;;;4.00;96.80;;;;;;5089413;28;20309;-76
2021/03/19 02:52:24;;;;;;;8.95;4.90;;;4.00;96.70;;;;;;5070972;28;20047;-77
2021/03/19 02:54:52;;;;;;;7.55;4.78;;;4.00;96.80;;;;;;5070939;28;20433;-76
2021/03/19 02:57:20;;;;;;;9.48;5.15;;;4.00;96.80;;;;;;5088497;28;20044;-76
2021/03/19 02:59:47;;;;;;;8.27;5.07;;;4.10;96.90;;;;;;5070756;28;20569;-76
2021/03/19 03:02:13;;;;;;;8.48;5.15;;;4.10;96.80;;;;;;5076781;28;20139;-77
2021/03/19 03:04:40;;;;;;;8.43;5.13;;;4.10;96.80;;;;;;5068831;28;20557;-77
2021/03/19 03:07:21;;;;;;;8.77;5.32;;;4.10;96.80;;;;;;5072364;28;20565;-76
2021/03/19 03:09:49;;;;;;;8.73;5.05;;;4.20;96.70;;;;;;5072619;28;20079;-76
2021/03/19 03:12:16;;;;;;;8.70;5.32;;;4.20;96.70;;;;;;5087902;28;20459;-76
2021/03/19 03:14:42;;;;;;;8.63;5.25;;;4.20;96.70;;;;;;5096547;28;20054;-76
2021/03/19 03:17:10;;;;;;;8.48;5.20;;;4.20;96.80;;;;;;5096792;28;20136;-77
2021/03/19 03:19:38;;;;;;;7.38;4.80;;;4.20;96.70;;;;;;5096585;28;20043;-76
2021/03/19 03:22:04;;;;;;;8.27;4.80;;;4.10;96.80;;;;;;5096530;28;20151;-76
2021/03/19 03:24:32;;;;;;;9.10;5.20;;;4.10;96.80;;;;;;5096893;28;20160;-76
2021/03/19 03:26:59;;;;;;;8.18;4.82;;;4.10;96.80;;;;;;5078059;28;20123;-76
2021/03/19 03:29:27;;;;;;;7.65;4.90;;;4.10;97.00;;;;;;5095256;28;20484;-75
2021/03/19 03:31:55;;;;;;;7.43;4.80;;;4.10;96.50;;;;;;5096100;28;20556;-76
2021/03/19 03:34:23;;;;;;;9.05;4.95;;;4.10;96.60;;;;;;5096184;28;20125;-76
2021/03/19 03:36:52;;;;;;;8.52;4.90;;;4.00;96.60;;;;;;5096216;28;20140;-76
2021/03/19 03:39:25;;;;;;;8.27;4.60;;;4.00;96.60;;;;;;5095831;28;20135;-76
2021/03/19 03:41:54;;;;;;;7.97;4.63;;;4.00;96.40;;;;;;5095862;28;20525;-75
2021/03/19 03:44:20;;;;;;;9.07;5.00;;;4.00;96.30;;;;;;5096330;28;20139;-76
2021/03/19 03:46:48;;;;;;;8.65;5.07;;;3.90;96.30;;;;;;5096010;28;20135;-76
2021/03/19 03:49:17;;;;;;;7.25;4.60;;;3.80;96.60;;;;;;5078114;28;20134;-75
2021/03/19 03:51:44;;;;;;;7.53;4.93;;;3.70;96.90;;;;;;5096122;28;20127;-76
2021/03/19 03:54:12;;;;;;;8.07;4.75;;;3.70;97.20;;;;;;5095942;28;20091;-76
2021/03/19 03:56:39;;;;;;;9.43;5.18;;;3.70;97.50;;;;;;5095690;28;20050;-75
2021/03/19 03:59:07;;;;;;;7.60;5.13;;;3.80;97.60;;;;;;5095912;28;20135;-76
2021/03/19 04:01:34;;;;;;;7.93;4.90;;;3.80;97.70;;;;;;5095163;28;20134;-76
2021/03/19 04:04:01;;;;;;;8.07;4.97;;;3.80;97.70;;;;;;5093080;28;20147;-76
2021/03/19 04:06:27;;;;;;;8.02;4.78;;;3.80;97.90;;;;;;5093399;28;20067;-76
2021/03/19 04:08:54;;;;;;;7.75;4.90;;;3.70;97.60;;;;;;5090996;28;20123;-76
2021/03/19 04:11:22;;;;;;;7.95;5.53;;;3.60;97.70;;;;;;5091858;28;20126;-76
2021/03/19 04:13:50;;;;;;;10.30;5.63;;;3.60;97.90;;;;;;5091692;28;20135;-77
2021/03/19 04:16:19;;;;;;;8.25;4.97;;;3.70;97.90;;;;;;5091877;28;20261;-76
2021/03/19 04:18:46;;;;;;;8.35;5.10;;;3.70;97.70;;;;;;5092013;28;20560;-76
2021/03/19 04:21:14;;;;;;;7.72;4.80;;;3.70;97.60;;;;;;5091882;28;20131;-77
2021/03/19 04:23:43;;;;;;;8.73;5.32;;;3.70;97.50;;;;;;5072822;28;20170;-76
2021/03/19 04:26:21;;;;;;;7.07;4.80;;;3.80;97.50;;;;;;5091937;28;20135;-75
2021/03/19 04:28:48;;;;;;;7.88;5.15;;;3.80;97.60;;;;;;5092193;28;20082;-76
2021/03/19 04:31:15;;;;;;;8.60;5.60;;;3.80;97.60;;;;;;5073776;28;20052;-75
2021/03/19 04:33:43;;;;;;;9.45;5.50;;;3.80;97.30;;;;;;5092061;28;20075;-76
2021/03/19 04:36:30;;;;;;;8.98;5.00;;;3.80;97.30;;;;;;5091880;28;20474;-77
2021/03/19 04:39:01;;;;;;;8.98;5.22;;;3.80;97.50;;;;;;5073865;28;20135;-76
2021/03/19 04:41:28;;;;;;;7.65;5.03;;;3.80;97.70;;;;;;5091681;28;20052;-76
2021/03/19 04:43:55;;;;;;;8.25;5.45;;;3.80;97.80;;;;;;5091789;28;20438;-75
2021/03/19 04:46:22;;;;;;;8.60;5.47;;;3.90;97.60;;;;;;5091781;28;20497;-76
2021/03/19 04:48:49;;;;;;;9.30;5.45;;;3.80;97.70;;;;;;5091824;28;20123;-76
2021/03/19 04:51:16;;;;;;;9.30;5.43;;;3.90;97.70;;;;;;5091474;28;20451;-75
2021/03/19 04:53:44;;;;;;;9.90;6.00;;;3.90;97.40;;;;;;5091819;28;20130;-75
2021/03/19 04:56:10;;;;;;;9.82;6.13;;;3.90;97.30;;;;;;5091324;28;20044;-76
2021/03/19 04:58:37;;;;;;;7.88;5.13;;;3.90;97.20;;;;;;5091767;28;20139;-75
2021/03/19 05:01:04;;;;;;;8.68;5.47;;;3.80;97.30;;;;;;5091761;28;20482;-75
2021/03/19 05:03:32;;;;;;;7.72;5.43;;;3.70;97.60;;;;;;5056298;28;20215;-75
2021/03/19 05:06:00;;;;;;;8.43;5.40;;;3.70;97.90;;;;;;5088819;28;20466;-75
2021/03/19 05:08:26;;;;;;;7.38;4.63;;;3.70;98.10;;;;;;5094653;28;20131;-75
2021/03/19 05:10:53;;;;;;;10.02;5.40;;;3.70;98.20;;;;;;5094359;28;20135;-75
2021/03/19 05:13:20;;;;;;;8.00;5.28;;;3.80;98.20;;;;;;5094540;28;20127;-75
2021/03/19 05:15:46;;;;;;;8.20;5.80;;;3.80;98.40;;;;;;5094506;28;20143;-77
2021/03/19 05:18:13;;;;;;;10.70;5.47;;;3.80;98.10;;;;;;5076770;28;20144;-76
2021/03/19 05:20:40;;;;;;;10.50;6.32;;;3.90;98.20;;;;;;5094422;28;20076;-76
2021/03/19 05:23:19;;;;;;;10.68;6.20;;;3.90;98.20;;;;;;5094279;28;20154;-76
2021/03/19 05:25:46;;;;;;;9.02;5.82;;;4.00;98.10;;;;;;5093848;28;20143;-75
2021/03/19 05:28:13;;;;;;;10.35;6.68;;;3.90;97.70;;;;;;5080708;28;20051;-76
2021/03/19 05:30:39;;;;;;;8.57;5.53;;;3.90;97.60;;;;;;5076166;28;20135;-76
2021/03/19 05:33:07;;;;;;;8.50;5.55;;;3.90;97.70;;;;;;5108253;28;20126;-76
2021/03/19 05:35:34;;;;;;;9.50;5.70;;;3.90;97.80;;;;;;5113993;28;20481;-75
2021/03/19 05:38:01;;;;;;;8.43;5.78;;;3.90;97.90;;;;;;5114151;28;20442;-75
2021/03/19 05:40:38;;;;;;;8.50;5.47;;;3.80;98.00;;;;;;5114085;28;20130;-76
2021/03/19 05:43:37;;;;;;;8.95;5.30;;;3.90;98.00;;;;;;5096180;28;20138;-76
2021/03/19 05:46:07;;;;;;;10.48;6.13;;;3.90;98.00;;;;;;5114526;28;20086;-76
2021/03/19 05:48:50;;;;;;;9.65;6.53;;;3.90;97.80;;;;;;5096054;28;20075;-76
2021/03/19 05:51:41;;;;;;;10.57;6.20;;;4.00;97.80;;;;;;5096847;28;20043;-76
2021/03/19 05:54:20;;;;;;;9.40;6.25;;;4.00;97.70;;;;;;5107443;28;20201;-76
2021/03/19 05:56:49;;;;;;;9.25;6.00;;;4.00;97.80;;;;;;5113775;28;20135;-76
2021/03/19 05:59:16;;;;;;;8.95;6.03;;;4.00;97.90;;;;;;5114004;28;20127;-76
2021/03/19 06:01:42;;;;;;;11.93;6.47;;;4.10;97.50;;;;;;5113808;28;20075;-75
2021/03/19 06:04:20;;;;;;;10.65;5.45;;;4.10;97.40;;;;;;5078872;28;20077;-75
2021/03/19 06:06:54;;;;;;;9.43;5.93;;;4.10;97.50;;;;;;5113767;28;20552;-76
2021/03/19 06:09:31;;;;;;;10.45;5.85;;;4.00;97.40;;;;;;5113835;28;20485;-76
2021/03/19 06:12:03;;;;;;;9.43;5.60;;;4.00;97.50;;;;;;5113673;28;20043;-75
2021/03/19 06:14:40;;;;;;;9.48;6.68;;;4.00;97.50;;;;;;5113181;28;20050;-75
2021/03/19 06:17:25;;;;;;;9.60;5.70;;;4.00;97.30;;;;;;5114179;28;20043;-76
2021/03/19 06:19:57;;;;;;;9.05;5.90;;;3.90;97.30;;;;;;5113719;28;20089;-75
2021/03/19 06:22:31;;;;;;;9.25;6.55;;;3.90;97.40;;;;;;5114031;28;20134;-75
2021/03/19 06:25:03;;;;;;;10.50;6.70;;;3.90;97.70;;;;;;5113745;28;20130;-75
2021/03/19 06:27:42;;;;;;;10.57;6.38;;;3.90;97.80;;;;;;5113687;28;20134;-75
2021/03/19 06:30:19;;;;;;;11.48;6.78;;;3.90;97.50;;;;;;5112867;28;20409;-75
2021/03/19 06:33:07;;;;;;;10.00;6.18;;;3.90;97.60;;;;;;5112390;28;20044;-75
2021/03/19 06:35:37;;;;;;;10.18;6.68;;;3.90;97.80;;;;;;5113256;28;20047;-75
2021/03/19 06:38:35;;;;;;;13.90;8.02;;;3.80;97.90;;;;;;5113534;28;20079;-75
2021/03/19 06:41:31;;;;;;;11.63;8.23;;;3.80;98.10;;;;;;5113350;28;20126;-75
2021/03/19 06:44:21;;;;;;;12.30;8.25;;;3.80;98.30;;;;;;5095306;28;20083;-75
2021/03/19 06:46:52;;;;;;;12.15;7.97;;;3.80;98.60;;;;;;5094936;28;20127;-75
2021/03/19 06:49:23;;;;;;;13.05;8.82;;;3.80;98.40;;;;;;5072609;28;20553;-75
2021/03/19 06:51:53;;;;;;;13.52;8.82;;;3.70;98.50;;;;;;5072797;28;20102;-75
2021/03/19 06:54:22;;;;;;;14.23;9.05;;;3.80;98.80;;;;;;5072495;28;20405;-76
2021/03/19 06:57:06;;;;;;;13.40;8.65;;;3.80;98.80;;;;;;5072521;28;20079;-76
2021/03/19 06:59:45;;;;;;;13.85;8.82;;;3.80;98.60;;;;;;5073164;28;20456;-75
2021/03/19 07:02:57;;;;;;;14.95;9.27;;;3.80;98.90;;;;;;5073818;28;20138;-77
2021/03/19 07:05:44;;;;;;;14.55;9.43;;;3.80;98.90;;;;;;5056289;28;20076;-77
2021/03/19 07:08:25;;;;;;;15.82;9.95;;;3.90;98.80;;;;;;5054553;28;20044;-77
2021/03/19 07:11:36;;;;;;;13.35;8.68;;;3.90;99.20;;;;;;5072708;28;20516;-77
2021/03/19 07:14:43;;;;;;;13.40;8.88;;;4.00;99.00;;;;;;5054545;28;20135;-77
2021/03/19 07:17:24;;;;;;;13.90;9.00;;;4.00;99.00;;;;;;5072659;28;20083;-76
2021/03/19 07:20:05;;;;;;;13.38;8.30;;;4.10;99.10;;;;;;5054386;28;20048;-77
2021/03/19 07:22:57;;;;;;;12.50;8.48;;;4.20;99.00;;;;;;5072347;28;20523;-77
2021/03/19 07:25:58;;;;;;;12.32;8.52;;;4.20;98.90;;;;;;5072580;28;20080;-77
2021/03/19 07:28:37;;;;;;;14.10;8.68;;;4.30;98.90;;;;;;5065521;28;20144;-77
2021/03/19 07:31:34;;;;;;;13.13;8.25;;;4.40;98.90;;;;;;5054336;28;20051;-77
2021/03/19 07:34:48;;;;;;;13.35;8.35;;;4.40;98.60;;;;;;5071835;28;20131;-76
2021/03/19 07:37:40;;;;;;;12.82;8.55;;;4.50;98.70;;;;;;5017892;28;20102;-77
2021/03/19 07:40:26;;;;;;;14.10;9.07;;;4.60;98.50;;;;;;5072223;28;20561;-76
2021/03/19 07:43:19;;;;;;;10.95;7.32;;;4.70;98.30;;;;;;5055665;28;20132;-77
2021/03/19 07:46:05;;;;;;;13.45;8.55;;;4.60;98.40;;;;;;5054263;28;20135;-77
2021/03/19 07:48:52;;;;;;;13.35;8.50;;;4.70;98.50;;;;;;5072372;28;20080;-77
2021/03/19 07:51:34;;;;;;;14.88;9.20;;;4.80;98.00;;;;;;5072040;28;20055;-77
2021/03/19 07:54:12;;;;;;;13.95;9.55;;;4.80;97.90;;;;;;5072274;28;20091;-76
2021/03/19 07:56:57;;;;;;;12.40;8.00;;;4.80;97.40;;;;;;5071995;28;20127;-76
2021/03/19 07:59:37;;;;;;;10.45;7.25;;;4.70;97.90;;;;;;5075514;28;20083;-78
2021/03/19 08:02:38;;;;;;;11.05;7.55;;;4.70;97.50;;;;;;5075447;28;20500;-77
2021/03/19 08:05:20;;;;;;;12.80;7.63;;;4.60;97.20;;;;;;5075572;28;20219;-77
2021/03/19 08:07:58;;;;;;;11.75;7.72;;;4.60;97.50;;;;;;5075510;28;20493;-77
2021/03/19 08:10:29;;;;;;;10.90;7.45;;;4.70;97.80;;;;;;5075488;28;20080;-78
2021/03/19 08:13:05;;;;;;;11.00;6.90;;;4.70;97.50;;;;;;5075695;28;20462;-78
2021/03/19 08:15:39;;;;;;;10.70;7.20;;;4.80;97.50;;;;;;5075772;28;20091;-77
2021/03/19 08:18:16;;;;;;;13.50;8.35;;;4.80;97.30;;;;;;5075697;28;20132;-78
2021/03/19 08:21:04;;;;;;;12.15;7.85;;;4.90;97.00;;;;;;5058253;28;20474;-78
2021/03/19 08:23:43;;;;;;;12.05;8.20;;;4.90;96.90;;;;;;5075420;28;20139;-78
2021/03/19 08:26:27;;;;;;;10.35;7.28;;;4.90;97.00;;;;;;5058959;28;20056;-78
2021/03/19 08:29:03;;;;;;;12.13;8.20;;;4.90;97.40;;;;;;5075982;28;20470;-77
2021/03/19 08:31:42;;;;;;;12.93;8.18;;;5.00;97.70;;;;;;5075233;28;20140;-77
2021/03/19 08:34:22;;;;;;;11.23;8.10;;;5.00;97.30;;;;;;5058481;28;20087;-77
2021/03/19 08:36:52;;;;;;;13.60;8.70;;;5.10;97.20;;;;;;5075844;28;20127;-76
2021/03/19 08:39:27;;;;;;;11.32;7.60;;;5.10;97.10;;;;;;5075109;28;20102;-76
2021/03/19 08:42:01;;;;;;;10.48;7.10;;;5.10;96.90;;;;;;5075181;28;20485;-76
2021/03/19 08:44:34;;;;;;;11.18;7.55;;;5.10;97.20;;;;;;5075238;28;20131;-76
2021/03/19 08:47:20;;;;;;;11.52;8.10;;;5.10;97.10;;;;;;5074996;28;20127;-76
2021/03/19 08:49:50;;;;;;;12.00;7.82;;;5.20;97.20;;;;;;5074817;28;20044;-76
2021/03/19 08:52:30;;;;;;;14.45;8.50;;;5.20;96.80;;;;;;5074466;28;20135;-77
2021/03/19 08:55:33;;;;;;;12.45;8.50;;;5.20;96.90;;;;;;5074433;28;20044;-77
2021/03/19 08:58:47;;;;;;;13.02;8.20;;;5.30;97.00;;;;;;5054771;28;20135;-77
2021/03/19 09:01:58;;;;;;;13.85;8.80;;;5.40;96.80;;;;;;5076897;28;20051;-77
2021/03/19 09:05:04;;;;;;;12.15;8.15;;;5.40;96.90;;;;;;5094214;28;20190;-77
2021/03/19 09:07:35;;;;;;;13.40;8.55;;;5.60;96.80;;;;;;5094642;28;20554;-77
2021/03/19 09:10:15;;;;;;;11.32;8.30;;;5.70;96.90;;;;;;5093854;28;20113;-77
2021/03/19 09:13:13;;;;;;;10.18;7.38;;;5.80;96.80;;;;;;5094568;28;20048;-76
2021/03/19 09:15:42;;;;;;;11.52;8.32;;;5.90;96.80;;;;;;5094385;28;20048;-76
2021/03/19 09:18:41;;;;;;;11.63;8.50;;;6.00;96.80;;;;;;5094265;28;20135;-76
2021/03/19 09:21:12;;;;;;;11.63;8.25;;;6.10;96.50;;;;;;5094381;28;20122;-76
2021/03/19 09:24:15;;;;;;;12.50;7.95;;;6.20;95.70;;;;;;5094018;28;20123;-75
2021/03/19 09:26:48;;;;;;;10.90;7.73;;;6.20;95.90;;;;;;5094449;28;20210;-76
2021/03/19 09:29:33;;;;;;;10.82;7.72;;;6.00;95.80;;;;;;5094074;28;20059;-76
2021/03/19 09:32:31;;;;;;;12.45;8.98;;;5.90;96.20;;;;;;5094423;28;20055;-76
2021/03/19 09:35:35;;;;;;;12.77;8.50;;;5.90;96.00;;;;;;5093166;28;20481;-76
2021/03/19 09:38:03;;;;;;;11.10;8.10;;;5.90;96.10;;;;;;5087350;28;20455;-75
2021/03/19 09:40:51;;;;;;;13.50;9.32;;;6.00;95.70;;;;;;5094197;28;20172;-76
2021/03/19 09:43:44;;;;;;;13.82;8.43;;;6.00;95.60;;;;;;5075983;28;20083;-76
2021/03/19 09:46:23;;;;;;;11.97;8.10;;;6.00;95.80;;;;;;5093915;28;20050;-75
2021/03/19 09:49:02;;;;;;;12.32;7.80;;;5.80;96.30;;;;;;5093805;28;20464;-75
2021/03/19 09:51:43;;;;;;;14.10;9.40;;;5.70;96.40;;;;;;5094004;28;20040;-77
2021/03/19 09:54:19;;;;;;;12.52;9.10;;;5.60;96.70;;;;;;5093683;28;20067;-77
2021/03/19 09:56:46;;;;;;;12.00;9.00;;;5.60;96.90;;;;;;5093694;28;20094;-76
2021/03/19 09:59:22;;;;;;;13.80;9.05;;;5.50;97.00;;;;;;5075982;28;20043;-76
2021/03/19 10:01:49;;;;;;;12.35;8.80;;;5.50;97.30;;;;;;5096320;28;20139;-76
2021/03/19 10:04:35;;;;;;;12.15;9.18;;;5.40;97.50;;;;;;5093710;28;20132;-76
2021/03/19 10:07:13;;;;;;;13.00;9.55;;;5.50;97.80;;;;;;5093764;28;20139;-76
2021/03/19 10:09:45;;;;;;;14.82;9.45;;;5.60;97.70;;;;;;5075607;28;20538;-76
2021/03/19 10:12:18;;;;;;;15.02;9.93;;;5.60;97.60;;;;;;5094613;28;20118;-76
2021/03/19 10:14:48;;;;;;;13.63;10.10;;;5.70;97.20;;;;;;5095553;28;20357;-76
2021/03/19 10:17:36;;;;;;;11.45;8.70;;;5.70;97.10;;;;;;5094539;28;20134;-76
2021/03/19 10:20:22;;;;;;;12.15;8.57;;;5.60;97.00;;;;;;5096957;28;20040;-76
2021/03/19 10:22:51;;;;;;;10.48;7.32;;;5.50;97.30;;;;;;5099802;28;20048;-76
2021/03/19 10:25:32;;;;;;;9.95;6.95;;;5.50;97.80;;;;;;5103808;28;20477;-75
2021/03/19 10:28:01;;;;;;;9.20;6.25;;;5.50;97.90;;;;;;5103083;28;20054;-75
2021/03/19 10:30:35;;;;;;;9.63;7.15;;;5.50;97.90;;;;;;5103390;28;20107;-75
2021/03/19 10:33:14;;;;;;;10.80;7.22;;;5.40;97.90;;;;;;5085794;28;20044;-76
2021/03/19 10:35:47;;;;;;;11.45;7.88;;;5.40;98.20;;;;;;5104168;28;20059;-76
2021/03/19 10:38:25;;;;;;;11.48;8.20;;;5.40;98.20;;;;;;5084195;28;20040;-75
2021/03/19 10:40:59;;;;;;;11.18;7.82;;;5.40;98.20;;;;;;5103043;28;20535;-76
2021/03/19 10:43:35;;;;;;;11.07;7.47;;;5.20;98.40;;;;;;5103135;28;20048;-75
2021/03/19 10:46:11;;;;;;;11.98;8.02;;;5.20;98.60;;;;;;5103132;28;20067;-75
2021/03/19 10:48:46;;;;;;;10.73;7.55;;;5.10;98.70;;;;;;5103368;28;20076;-75
2021/03/19 10:51:37;;;;;;;9.93;7.03;;;5.10;99.00;;;;;;5102651;28;20079;-75
2021/03/19 10:54:14;;;;;;;10.73;7.20;;;5.00;99.10;;;;;;5102406;28;20072;-75
2021/03/19 10:56:53;;;;;;;11.93;7.72;;;5.00;99.20;;;;;;5102669;28;20067;-75
2021/03/19 10:59:34;;;;;;;11.48;7.85;;;5.10;99.60;;;;;;5100528;28;20040;-75
2021/03/19 11:02:22;;;;;;;11.50;7.85;;;5.20;99.60;;;;;;5078234;28;20087;-75
2021/03/19 11:05:11;;;;;;;10.13;7.18;;;5.40;99.50;;;;;;5078442;28;20186;-75
2021/03/19 11:07:44;;;;;;;10.77;7.75;;;5.60;99.40;;;;;;5077932;28;20040;-77
2021/03/19 11:10:27;;;;;;;11.85;8.45;;;5.70;99.20;;;;;;5093411;28;20131;-75
2021/03/19 11:12:57;;;;;;;11.32;8.48;;;5.80;98.90;;;;;;5098100;28;20105;-76
2021/03/19 11:15:38;;;;;;;11.50;7.72;;;6.00;99.00;;;;;;5097666;28;20087;-75
2021/03/19 11:18:19;;;;;;;11.77;8.05;;;6.10;98.80;;;;;;5080398;28;20513;-75
2021/03/19 11:20:49;;;;;;;11.52;8.40;;;6.10;98.60;;;;;;5080118;28;20398;-75
2021/03/19 11:23:36;;;;;;;13.50;8.15;;;6.20;98.10;;;;;;5095039;28;20052;-75
2021/03/19 11:26:24;;;;;;;11.25;7.60;;;6.20;98.70;;;;;;5089690;28;20484;-75
2021/03/19 11:29:06;;;;;;;10.35;7.68;;;6.30;98.80;;;;;;5072310;28;20052;-75
2021/03/19 11:31:33;;;;;;;11.05;7.93;;;6.40;98.90;;;;;;5091328;28;20133;-75
2021/03/19 11:34:16;;;;;;;10.98;7.57;;;6.60;98.90;;;;;;5075792;28;20059;-75
2021/03/19 11:36:59;;;;;;;10.77;7.68;;;6.90;98.70;;;;;;5093923;28;20091;-75
2021/03/19 11:39:44;;;;;;;10.80;7.43;;;7.10;99.00;;;;;;5093486;28;20562;-75
2021/03/19 11:42:13;;;;;;;11.02;7.60;;;7.40;97.70;;;;;;5095076;28;20071;-75
2021/03/19 11:44:41;;;;;;;9.00;6.38;;;7.60;97.80;;;;;;5094918;28;20084;-75
2021/03/19 11:47:16;;;;;;;9.38;6.68;;;7.70;97.40;;;;;;5095188;28;20123;-76
2021/03/19 11:49:43;;;;;;;7.72;5.35;;;7.80;96.30;;;;;;5094809;28;20075;-75
2021/03/19 11:52:13;;;;;;;8.93;6.35;;;7.80;94.50;;;;;;5094314;28;20500;-74
2021/03/19 11:54:41;;;;;;;7.43;4.53;;;7.50;94.60;;;;;;5076519;28;20149;-74
2021/03/19 11:57:09;;;;;;;5.93;3.63;;;7.50;92.90;;;;;;5094023;28;20131;-75
2021/03/19 11:59:36;;;;;;;5.15;3.17;;;7.30;92.40;;;;;;5093713;28;20134;-76
2021/03/19 12:02:17;;;;;;;4.93;2.88;;;7.10;92.10;;;;;;5094029;28;20063;-74
2021/03/19 12:04:43;;;;;;;5.38;3.20;;;6.90;92.50;;;;;;5092278;28;20098;-76
2021/03/19 12:07:10;;;;;;;5.85;3.72;;;6.80;92.00;;;;;;5093824;28;20091;-75
2021/03/19 12:09:37;;;;;;;6.70;4.45;;;6.80;92.80;;;;;;5075155;28;20127;-76
2021/03/19 12:12:13;;;;;;;5.60;3.90;;;6.80;92.80;;;;;;5093130;28;20056;-73
2021/03/19 12:14:40;;;;;;;6.60;4.10;;;6.70;93.40;;;;;;5092282;28;20070;-74
2021/03/19 12:17:07;;;;;;;6.18;3.88;;;6.60;94.00;;;;;;5074940;28;20211;-76
2021/03/19 12:19:33;;;;;;;7.22;4.25;;;6.60;93.20;;;;;;5092763;28;20048;-76
2021/03/19 12:22:00;;;;;;;7.13;4.22;;;6.60;93.30;;;;;;5092327;28;20603;-76
2021/03/19 12:24:27;;;;;;;6.05;3.85;;;6.40;93.70;;;;;;5092229;28;20147;-76
2021/03/19 12:26:54;;;;;;;6.25;3.95;;;6.40;93.60;;;;;;5058633;28;20052;-77
2021/03/19 12:29:21;;;;;;;7.38;4.45;;;6.30;93.20;;;;;;5092802;28;20126;-75
2021/03/19 12:31:48;;;;;;;5.97;3.78;;;6.30;93.10;;;;;;5092113;28;20082;-76
2021/03/19 12:34:14;;;;;;;5.90;3.95;;;6.30;93.70;;;;;;5091659;28;20144;-75
2021/03/19 12:36:41;;;;;;;5.63;3.78;;;6.20;93.70;;;;;;5092219;28;20131;-76
2021/03/19 12:39:08;;;;;;;6.70;4.00;;;6.20;93.40;;;;;;5092351;28;20135;-76
2021/03/19 12:41:35;;;;;;;6.15;3.70;;;6.10;93.50;;;;;;5093494;28;20080;-76
2021/03/19 12:44:02;;;;;;;5.78;3.95;;;6.10;93.80;;;;;;5091190;28;20489;-77
2021/03/19 12:46:29;;;;;;;5.70;3.85;;;6.10;93.90;;;;;;5071746;28;20542;-76
2021/03/19 12:48:56;;;;;;;5.95;3.78;;;6.10;93.90;;;;;;5055105;28;20171;-77
2021/03/19 12:51:22;;;;;;;6.32;4.25;;;6.10;94.20;;;;;;5072469;28;20087;-76
2021/03/19 12:53:49;;;;;;;6.00;3.80;;;6.10;93.50;;;;;;5072597;28;20135;-76
2021/03/19 12:56:16;;;;;;;6.60;4.10;;;6.10;93.80;;;;;;5071969;28;20158;-77
2021/03/19 12:58:43;;;;;;;5.70;3.38;;;6.10;94.10;;;;;;5073839;28;20041;-77
2021/03/19 13:01:09;;;;;;;6.22;3.90;;;6.10;94.20;;;;;;5074748;28;20047;-77
2021/03/19 13:03:37;;;;;;;5.53;3.42;;;6.10;94.00;;;;;;5091727;28;20417;-76
2021/03/19 13:06:05;;;;;;;6.45;3.97;;;6.00;94.40;;;;;;5092609;28;20077;-76
2021/03/19 13:08:31;;;;;;;7.30;4.07;;;6.10;94.50;;;;;;5092245;28;20075;-76
2021/03/19 13:10:58;;;;;;;6.07;4.00;;;6.20;93.30;;;;;;5089616;28;20052;-77
2021/03/19 13:13:25;;;;;;;7.40;4.70;;;6.10;93.50;;;;;;5091365;28;20082;-76
2021/03/19 13:15:52;;;;;;;7.72;4.45;;;6.10;93.80;;;;;;5092479;28;20139;-76
2021/03/19 13:18:19;;;;;;;7.20;4.20;;;6.10;93.90;;;;;;5091868;28;20048;-76
2021/03/19 13:20:46;;;;;;;6.47;4.20;;;6.20;93.50;;;;;;5091380;28;20566;-76
2021/03/19 13:23:14;;;;;;;6.38;4.05;;;6.00;93.30;;;;;;5090737;28;20135;-77
2021/03/19 13:25:41;;;;;;;7.32;4.38;;;6.00;93.60;;;;;;5091165;28;20123;-76
2021/03/19 13:28:10;;;;;;;6.68;4.22;;;6.00;93.90;;;;;;5092338;28;20048;-75
2021/03/19 13:30:37;;;;;;;7.50;4.40;;;6.10;93.90;;;;;;5092217;28;20115;-76
2021/03/19 13:33:06;;;;;;;6.72;4.68;;;6.20;93.70;;;;;;5095774;28;20068;-77
2021/03/19 13:35:37;;;;;;;7.20;4.50;;;6.30;93.50;;;;;;5096818;28;20044;-76
2021/03/19 13:38:11;;;;;;;6.57;4.25;;;6.40;93.10;;;;;;5094320;28;20133;-77
2021/03/19 13:40:40;;;;;;;7.55;4.90;;;6.30;92.80;;;;;;5097361;28;20048;-76